createdAt,value
2023-01-26T00:02:26.969Z,-0.40
2023-01-26T00:04:54.824Z,-0.40
2023-01-26T00:07:22.673Z,-0.50
2023-01-26T00:09:50.721Z,-0.40
2023-01-26T00:12:19.905Z,-0.30
2023-01-26T00:14:53.418Z,-0.30
2023-01-26T00:17:27.816Z,-0.30
2023-01-26T00:19:58.450Z,-0.30
2023-01-26T00:22:28.230Z,-0.30
2023-01-26T00:24:56.161Z,-0.30
2023-01-26T00:27:26.157Z,-0.40
2023-01-26T00:29:54.475Z,-0.40
2023-01-26T00:32:22.670Z,-0.40
2023-01-26T00:34:50.692Z,-0.50
2023-01-26T00:37:19.143Z,-0.60
2023-01-26T00:39:47.067Z,-0.60
2023-01-26T00:42:15.852Z,-0.60
2023-01-26T00:44:45.762Z,-0.60
2023-01-26T00:47:15.701Z,-0.60
2023-01-26T00:49:43.867Z,-0.50
2023-01-26T00:52:12.468Z,-0.60
2023-01-26T00:54:40.844Z,-0.60
2023-01-26T00:57:08.782Z,-0.70
2023-01-26T00:59:36.965Z,-0.60
2023-01-26T01:02:06.558Z,-0.60
2023-01-26T01:04:34.487Z,-0.60
2023-01-26T01:07:02.504Z,-0.50
2023-01-26T01:09:30.440Z,-0.50
2023-01-26T01:11:58.385Z,-0.50
2023-01-26T01:14:26.377Z,-0.50
2023-01-26T01:16:54.269Z,-0.40
2023-01-26T01:19:23.743Z,-0.40
2023-01-26T01:21:54.599Z,-0.40
2023-01-26T01:24:22.884Z,-0.30
2023-01-26T01:26:50.920Z,-0.30
2023-01-26T01:29:18.832Z,-0.40
2023-01-26T01:31:46.747Z,-0.40
2023-01-26T01:34:14.626Z,-0.40
2023-01-26T01:36:44.082Z,-0.40
2023-01-26T01:39:11.980Z,-0.40
2023-01-26T01:41:39.917Z,-0.30
2023-01-26T01:44:17.570Z,-0.40
2023-01-26T01:46:53.295Z,-0.30
2023-01-26T01:49:27.393Z,-0.30
2023-01-26T01:52:03.515Z,-0.30
2023-01-26T01:54:38.201Z,-0.20
2023-01-26T01:57:19.000Z,-0.30
2023-01-26T01:59:55.286Z,-0.30
2023-01-26T02:02:23.656Z,0.90
2023-01-26T02:04:52.383Z,-0.30
2023-01-26T02:07:22.406Z,-0.30
2023-01-26T02:10:09.302Z,-0.30
2023-01-26T02:12:37.764Z,-0.30
2023-01-26T02:15:06.863Z,-0.30
2023-01-26T02:17:34.827Z,-0.30
2023-01-26T02:20:12.545Z,-0.30
2023-01-26T02:22:54.363Z,-0.30
2023-01-26T02:25:37.953Z,-0.30
2023-01-26T02:28:07.669Z,-0.20
2023-01-26T02:30:35.952Z,-0.20
2023-01-26T02:33:04.072Z,-0.20
2023-01-26T02:35:32.249Z,-0.30
2023-01-26T02:38:01.863Z,-0.30
2023-01-26T02:40:41.837Z,-0.30
2023-01-26T02:43:11.092Z,-0.40
2023-01-26T02:45:41.342Z,-0.40
2023-01-26T02:48:09.313Z,-0.30
2023-01-26T02:50:36.487Z,-0.30
2023-01-26T02:53:05.409Z,-0.30
2023-01-26T02:55:33.300Z,-0.30
2023-01-26T02:58:04.571Z,-0.30
2023-01-26T03:00:37.974Z,-0.40
2023-01-26T03:03:14.921Z,-0.40
2023-01-26T03:05:42.986Z,-0.30
2023-01-26T03:08:11.156Z,-0.30
2023-01-26T03:10:39.455Z,-0.30
2023-01-26T03:13:08.291Z,-0.30
2023-01-26T03:15:52.553Z,-0.40
2023-01-26T03:18:41.962Z,-0.30
2023-01-26T03:21:31.783Z,-0.40
2023-01-26T03:24:17.727Z,-0.30
2023-01-26T03:27:03.929Z,-0.40
2023-01-26T03:29:34.121Z,-0.40
2023-01-26T03:32:04.421Z,-0.40
2023-01-26T03:34:32.771Z,-0.40
2023-01-26T03:37:00.894Z,-0.40
2023-01-26T03:39:53.411Z,-0.40
2023-01-26T03:42:39.219Z,-0.40
2023-01-26T03:45:26.803Z,-0.40
2023-01-26T03:48:25.965Z,-0.50
2023-01-26T03:51:11.226Z,-0.50
2023-01-26T03:53:57.111Z,-0.60
2023-01-26T03:56:32.508Z,-0.60
2023-01-26T03:59:10.972Z,-0.60
2023-01-26T04:02:02.007Z,-0.60
2023-01-26T04:04:49.748Z,-0.50
2023-01-26T04:07:35.805Z,-0.50
2023-01-26T04:10:03.740Z,-0.60
2023-01-26T04:12:32.168Z,-0.50
2023-01-26T04:15:33.181Z,-0.60
2023-01-26T04:18:25.165Z,-0.60
2023-01-26T04:21:15.086Z,-0.70
2023-01-26T04:23:48.134Z,-0.60
2023-01-26T04:26:16.912Z,-0.70
2023-01-26T04:28:44.868Z,-0.70
2023-01-26T04:31:12.861Z,-0.70
2023-01-26T04:33:40.804Z,-0.70
2023-01-26T04:36:11.788Z,-0.70
2023-01-26T04:38:43.986Z,-0.70
2023-01-26T04:41:13.629Z,-0.70
2023-01-26T04:43:47.014Z,-0.70
2023-01-26T04:46:16.215Z,-0.60
2023-01-26T04:48:44.666Z,-0.60
2023-01-26T04:51:17.303Z,-0.60
2023-01-26T04:53:45.291Z,-0.60
2023-01-26T04:56:23.783Z,-0.60
2023-01-26T04:58:53.852Z,-0.60
2023-01-26T05:01:23.904Z,-0.50
2023-01-26T05:03:52.692Z,1.20
2023-01-26T05:06:22.387Z,-0.60
2023-01-26T05:08:51.851Z,-0.70
2023-01-26T05:11:20.151Z,-0.70
2023-01-26T05:14:07.117Z,-0.70
2023-01-26T05:16:47.784Z,-0.70
2023-01-26T05:19:41.786Z,-0.70
2023-01-26T05:22:37.633Z,-0.70
2023-01-26T05:25:24.187Z,-0.80
2023-01-26T05:28:01.914Z,-0.80
2023-01-26T05:30:31.494Z,-0.80
2023-01-26T05:33:05.480Z,1.00
2023-01-26T05:35:34.601Z,-0.80
2023-01-26T05:38:05.174Z,-0.80
2023-01-26T05:40:34.848Z,-0.80
2023-01-26T05:43:02.815Z,-0.80
2023-01-26T05:45:49.559Z,-0.70
2023-01-26T05:48:18.715Z,-0.60
2023-01-26T05:50:51.334Z,-0.60
2023-01-26T05:53:22.685Z,-0.60
2023-01-26T05:55:51.211Z,-0.60
2023-01-26T05:58:22.707Z,-0.70
2023-01-26T06:00:50.792Z,-0.70
2023-01-26T06:03:25.381Z,-0.80
2023-01-26T06:05:56.484Z,-0.80
2023-01-26T06:08:36.277Z,-0.80
2023-01-26T06:11:34.236Z,-0.80
2023-01-26T06:14:18.275Z,-0.80
2023-01-26T06:16:46.275Z,-0.90
2023-01-26T06:19:14.388Z,-0.90
2023-01-26T06:21:44.985Z,-0.90
2023-01-26T06:24:15.242Z,-0.90
2023-01-26T06:26:43.157Z,-0.90
2023-01-26T06:29:12.547Z,-0.90
2023-01-26T06:31:41.928Z,-0.90
2023-01-26T06:34:11.420Z,-1.00
2023-01-26T06:36:42.009Z,-1.00
2023-01-26T06:39:16.918Z,-0.90
2023-01-26T06:41:45.159Z,-0.90
2023-01-26T06:44:13.941Z,-0.90
2023-01-26T06:46:41.854Z,-0.90
2023-01-26T06:49:10.859Z,-0.90
2023-01-26T06:51:53.545Z,-0.90
2023-01-26T06:54:25.551Z,-0.90
2023-01-26T06:57:11.929Z,-0.90
2023-01-26T07:00:00.407Z,-0.90
2023-01-26T07:02:36.967Z,-0.90
2023-01-26T07:05:05.633Z,-0.90
2023-01-26T07:07:33.561Z,-0.90
2023-01-26T07:10:02.893Z,-0.90
2023-01-26T07:12:40.735Z,-0.90
2023-01-26T07:15:11.376Z,-0.90
2023-01-26T07:17:40.547Z,-0.80
2023-01-26T07:20:12.739Z,-0.90
2023-01-26T07:22:40.822Z,-0.90
2023-01-26T07:25:10.692Z,-0.90
2023-01-26T07:27:38.852Z,-1.00
2023-01-26T07:30:08.885Z,-1.00
2023-01-26T07:32:36.934Z,-1.00
2023-01-26T07:35:05.783Z,-1.00
2023-01-26T07:37:33.649Z,-1.00
2023-01-26T07:40:01.559Z,-1.00
2023-01-26T07:42:31.089Z,-1.00
2023-01-26T07:45:19.389Z,-0.90
2023-01-26T07:47:48.029Z,-0.90
2023-01-26T07:50:16.554Z,-1.00
2023-01-26T07:52:44.907Z,-1.00
2023-01-26T07:55:16.207Z,-1.10
2023-01-26T07:57:46.296Z,-1.10
2023-01-26T08:00:15.760Z,-1.10
2023-01-26T08:02:43.908Z,-1.10
2023-01-26T08:05:11.876Z,-1.00
2023-01-26T08:07:40.026Z,-0.90
2023-01-26T08:10:10.922Z,-0.90
2023-01-26T08:12:41.126Z,-0.90
2023-01-26T08:15:11.813Z,-0.90
2023-01-26T08:17:39.995Z,-0.90
2023-01-26T08:20:09.963Z,-0.80
2023-01-26T08:22:38.744Z,-0.70
2023-01-26T08:25:08.973Z,-0.70
2023-01-26T08:27:37.014Z,-0.70
2023-01-26T08:30:06.670Z,-0.70
2023-01-26T08:32:36.059Z,-0.60
2023-01-26T08:35:04.161Z,-0.50
2023-01-26T08:37:32.104Z,-0.50
2023-01-26T08:39:59.990Z,-0.50
2023-01-26T08:42:27.936Z,-0.50
2023-01-26T08:44:55.829Z,-0.40
2023-01-26T08:47:23.724Z,-0.30
2023-01-26T08:49:53.111Z,-0.30
2023-01-26T08:52:21.577Z,-0.20
2023-01-26T08:54:49.746Z,-0.10
2023-01-26T08:57:17.642Z,0.00
2023-01-26T08:59:45.601Z,0.00
2023-01-26T09:02:13.597Z,0.00
2023-01-26T09:04:41.521Z,0.00
2023-01-26T09:07:13.347Z,0.00
2023-01-26T09:09:41.679Z,0.00
2023-01-26T09:12:09.668Z,0.10
2023-01-26T09:14:37.532Z,0.10
2023-01-26T09:17:05.392Z,0.10
2023-01-26T09:19:33.704Z,0.10
2023-01-26T09:22:01.606Z,0.00
2023-01-26T09:24:30.820Z,0.10
2023-01-26T09:26:58.998Z,0.10
2023-01-26T09:29:27.046Z,0.10
2023-01-26T09:31:55.002Z,0.10
2023-01-26T09:34:25.185Z,0.10
2023-01-26T09:36:53.075Z,0.10
2023-01-26T09:39:20.946Z,0.20
2023-01-26T09:42:11.157Z,0.20
2023-01-26T09:44:50.060Z,0.20
2023-01-26T09:47:27.089Z,0.10
2023-01-26T09:50:05.562Z,0.70
2023-01-26T09:52:40.542Z,0.20
2023-01-26T09:55:20.369Z,0.10
2023-01-26T09:57:56.437Z,0.10
2023-01-26T10:00:31.765Z,0.00
2023-01-26T10:03:16.937Z,0.00
2023-01-26T10:05:55.127Z,0.10
2023-01-26T10:09:09.000Z,0.00
2023-01-26T10:11:43.780Z,0.00
2023-01-26T10:14:20.809Z,0.10
2023-01-26T10:16:54.094Z,0.10
2023-01-26T10:19:35.500Z,0.20
2023-01-26T10:22:13.414Z,0.20
2023-01-26T10:24:41.269Z,0.30
2023-01-26T10:27:14.921Z,0.40
2023-01-26T10:29:44.233Z,0.40
2023-01-26T10:32:16.016Z,0.40
2023-01-26T10:34:46.190Z,0.40
2023-01-26T10:37:22.760Z,0.40
2023-01-26T10:40:01.754Z,0.50
2023-01-26T10:42:33.211Z,0.70
2023-01-26T10:45:06.835Z,0.90
2023-01-26T10:47:34.816Z,1.10
2023-01-26T10:50:22.233Z,1.20
2023-01-26T10:53:02.250Z,1.10
2023-01-26T10:55:33.286Z,1.30
2023-01-26T10:58:02.309Z,1.30
2023-01-26T11:00:36.391Z,1.40
2023-01-26T11:03:18.400Z,1.50
2023-01-26T11:05:48.138Z,1.50
2023-01-26T11:08:36.178Z,1.40
2023-01-26T11:11:08.016Z,1.40
2023-01-26T11:13:35.973Z,1.50
2023-01-26T11:16:15.378Z,1.50
2023-01-26T11:18:58.807Z,1.70
2023-01-26T11:21:32.213Z,1.80
2023-01-26T11:24:09.987Z,1.80
2023-01-26T11:27:13.287Z,2.00
2023-01-26T11:30:07.322Z,2.10
2023-01-26T11:32:51.751Z,2.30
2023-01-26T11:35:40.772Z,2.60
2023-01-26T11:38:27.452Z,2.80
2023-01-26T11:41:21.847Z,2.90
2023-01-26T11:44:36.256Z,3.10
2023-01-26T11:47:25.033Z,3.20
2023-01-26T11:50:23.600Z,3.20
2023-01-26T11:53:19.282Z,3.30
2023-01-26T11:56:04.468Z,3.10
2023-01-26T11:58:41.940Z,3.00
2023-01-26T12:01:20.296Z,3.10
2023-01-26T12:03:51.518Z,3.10
2023-01-26T12:06:32.581Z,3.20
2023-01-26T12:09:05.740Z,3.20
2023-01-26T12:11:41.477Z,3.30
2023-01-26T12:14:22.101Z,3.20
2023-01-26T12:17:18.498Z,3.10
2023-01-26T12:20:00.158Z,3.00
2023-01-26T12:22:35.815Z,2.90
2023-01-26T12:25:23.619Z,2.90
2023-01-26T12:28:00.076Z,2.80
2023-01-26T12:30:42.456Z,2.80
2023-01-26T12:33:12.529Z,2.80
2023-01-26T12:35:59.272Z,2.80
2023-01-26T12:38:47.540Z,2.70
2023-01-26T12:41:33.454Z,2.70
2023-01-26T12:44:26.103Z,2.70
2023-01-26T12:47:06.792Z,2.60
2023-01-26T12:49:44.144Z,2.50
2023-01-26T12:52:22.742Z,2.50
2023-01-26T12:55:00.635Z,2.50
2023-01-26T12:57:37.616Z,2.50
2023-01-26T13:00:18.889Z,2.20
2023-01-26T13:02:51.519Z,2.10
2023-01-26T13:05:29.489Z,2.00
2023-01-26T13:07:57.559Z,2.00
2023-01-26T13:10:45.705Z,2.00
2023-01-26T13:13:33.301Z,2.00
2023-01-26T13:16:35.284Z,2.00
2023-01-26T13:19:04.608Z,1.90
2023-01-26T13:21:45.219Z,1.90
2023-01-26T13:24:46.813Z,1.90
2023-01-26T13:27:35.215Z,1.90
2023-01-26T13:30:03.764Z,1.90
2023-01-26T13:33:05.371Z,1.90
2023-01-26T13:35:34.390Z,1.80
2023-01-26T13:38:15.338Z,1.90
2023-01-26T13:40:47.971Z,1.90
2023-01-26T13:43:28.179Z,1.80
2023-01-26T13:46:23.633Z,1.90
2023-01-26T13:48:52.618Z,1.80
2023-01-26T13:51:25.408Z,1.80
2023-01-26T13:54:03.255Z,1.80
2023-01-26T13:56:34.229Z,1.80
2023-01-26T13:59:13.579Z,1.80
2023-01-26T14:01:44.051Z,1.80
2023-01-26T14:04:20.128Z,1.70
2023-01-26T14:06:56.337Z,1.60
2023-01-26T14:09:27.985Z,1.60
2023-01-26T14:12:01.804Z,1.60
2023-01-26T14:14:36.606Z,1.40
2023-01-26T14:17:26.453Z,1.40
2023-01-26T14:19:54.563Z,1.50
2023-01-26T14:22:22.682Z,1.50
2023-01-26T14:24:53.918Z,1.60
2023-01-26T14:27:36.665Z,1.60
2023-01-26T14:30:25.927Z,1.60
2023-01-26T14:33:05.184Z,1.60
2023-01-26T14:35:33.777Z,1.60
2023-01-26T14:38:17.844Z,1.50
2023-01-26T14:40:47.143Z,1.50
2023-01-26T14:43:16.569Z,1.40
2023-01-26T14:45:51.837Z,1.40
2023-01-26T14:48:27.129Z,1.40
2023-01-26T14:50:55.500Z,1.40
2023-01-26T14:53:25.831Z,1.40
2023-01-26T14:55:54.779Z,1.40
2023-01-26T14:58:29.138Z,1.40
2023-01-26T15:01:00.967Z,1.40
2023-01-26T15:03:35.958Z,1.40
2023-01-26T15:06:20.447Z,1.40
2023-01-26T15:09:05.180Z,1.30
2023-01-26T15:11:56.643Z,1.30
2023-01-26T15:14:35.278Z,1.30
2023-01-26T15:17:06.360Z,1.20
2023-01-26T15:19:41.976Z,1.20
2023-01-26T15:22:23.120Z,1.20
2023-01-26T15:25:03.441Z,1.20
2023-01-26T15:27:34.429Z,1.20
2023-01-26T15:30:04.471Z,1.20
2023-01-26T15:32:40.459Z,1.20
2023-01-26T15:35:22.395Z,1.20
2023-01-26T15:38:00.059Z,1.10
2023-01-26T15:40:28.417Z,1.10
2023-01-26T15:43:12.568Z,1.10
2023-01-26T15:45:43.419Z,1.00
2023-01-26T15:48:12.605Z,1.00
2023-01-26T15:50:40.490Z,0.90
2023-01-26T15:53:14.647Z,0.90
2023-01-26T15:55:45.032Z,0.90
2023-01-26T15:58:13.076Z,0.90
2023-01-26T16:00:41.011Z,0.90
2023-01-26T16:03:17.398Z,0.90
2023-01-26T16:05:47.876Z,1.00
2023-01-26T16:08:17.034Z,1.50
2023-01-26T16:10:46.191Z,1.00
2023-01-26T16:13:18.521Z,1.00
2023-01-26T16:15:49.869Z,1.00
2023-01-26T16:18:19.679Z,1.00
2023-01-26T16:20:50.516Z,1.00
2023-01-26T16:23:21.622Z,1.00
2023-01-26T16:25:51.021Z,1.00
2023-01-26T16:28:19.949Z,1.00
2023-01-26T16:30:50.845Z,1.10
2023-01-26T16:33:21.894Z,1.10
2023-01-26T16:35:49.811Z,1.10
2023-01-26T16:38:17.719Z,1.00
2023-01-26T16:40:48.668Z,1.10
2023-01-26T16:43:23.848Z,1.00
2023-01-26T16:45:52.475Z,1.10
2023-01-26T16:48:23.539Z,2.50
2023-01-26T16:50:54.565Z,1.10
2023-01-26T16:53:27.864Z,1.10
2023-01-26T16:55:56.915Z,1.10
2023-01-26T16:58:26.392Z,1.10
2023-01-26T17:00:55.105Z,1.00
2023-01-26T17:03:24.894Z,1.00
2023-01-26T17:05:52.858Z,1.00
2023-01-26T17:08:20.732Z,1.00
2023-01-26T17:11:00.974Z,1.00
2023-01-26T17:13:29.847Z,1.00
2023-01-26T17:15:58.396Z,1.00
2023-01-26T17:18:27.629Z,1.00
2023-01-26T17:20:55.625Z,1.00
2023-01-26T17:23:23.476Z,1.00
2023-01-26T17:25:58.224Z,1.00
2023-01-26T17:28:26.245Z,1.00
2023-01-26T17:30:54.413Z,1.00
2023-01-26T17:33:22.334Z,0.90
2023-01-26T17:36:01.038Z,0.90
2023-01-26T17:38:28.990Z,0.90
2023-01-26T17:40:57.524Z,1.00
2023-01-26T17:43:25.908Z,0.90
2023-01-26T17:46:02.669Z,0.90
2023-01-26T17:48:31.188Z,0.90
2023-01-26T17:51:00.416Z,1.00
2023-01-26T17:53:28.820Z,1.00
2023-01-26T17:55:57.021Z,1.00
2023-01-26T17:58:24.962Z,1.00
2023-01-26T18:00:53.966Z,1.00
2023-01-26T18:03:26.248Z,1.00
2023-01-26T18:05:56.278Z,1.00
2023-01-26T18:08:26.599Z,1.00
2023-01-26T18:10:59.333Z,1.00
2023-01-26T18:13:28.111Z,0.90
2023-01-26T18:15:56.307Z,0.90
2023-01-26T18:18:25.062Z,1.00
2023-01-26T18:20:53.464Z,1.00
2023-01-26T18:23:23.247Z,1.00
2023-01-26T18:25:53.140Z,1.00
2023-01-26T18:28:21.011Z,1.00
2023-01-26T18:30:49.421Z,1.10
2023-01-26T18:33:17.644Z,1.00
2023-01-26T18:35:45.539Z,1.00
2023-01-26T18:38:13.453Z,1.10
2023-01-26T18:40:41.771Z,1.10
2023-01-26T18:43:11.209Z,1.10
2023-01-26T18:45:42.618Z,1.10
2023-01-26T18:48:10.857Z,1.10
2023-01-26T18:50:39.213Z,1.20
2023-01-26T18:53:07.235Z,1.20
2023-01-26T18:55:35.188Z,1.20
2023-01-26T18:58:03.059Z,1.10
2023-01-26T19:00:32.655Z,1.20
2023-01-26T19:03:00.599Z,1.20
2023-01-26T19:05:29.441Z,1.20
2023-01-26T19:07:57.455Z,1.20
2023-01-26T19:10:25.357Z,2.60
2023-01-26T19:12:53.646Z,1.20
2023-01-26T19:15:21.605Z,1.20
2023-01-26T19:17:50.831Z,1.20
2023-01-26T19:20:19.151Z,0.90
2023-01-26T19:22:53.788Z,1.20
2023-01-26T19:25:21.887Z,1.20
2023-01-26T19:27:49.817Z,1.20
2023-01-26T19:30:19.029Z,1.20
2023-01-26T19:33:08.229Z,1.10
2023-01-26T19:35:38.298Z,1.10
2023-01-26T19:38:07.571Z,1.20
2023-01-26T19:40:35.739Z,1.20
2023-01-26T19:43:06.510Z,1.20
2023-01-26T19:45:34.456Z,1.20
2023-01-26T19:48:03.848Z,1.20
2023-01-26T19:50:31.853Z,1.20
2023-01-26T19:52:59.738Z,1.10
2023-01-26T19:55:27.627Z,1.10
2023-01-26T19:57:55.496Z,1.10
2023-01-26T20:00:23.873Z,1.10
2023-01-26T20:02:51.748Z,1.10
2023-01-26T20:05:21.106Z,1.10
2023-01-26T20:07:48.980Z,1.10
2023-01-26T20:10:18.231Z,1.10
2023-01-26T20:12:46.111Z,1.20
2023-01-26T20:15:14.370Z,1.20
2023-01-26T20:17:42.897Z,1.20
2023-01-26T20:20:13.416Z,1.90
2023-01-26T20:22:44.301Z,1.20
2023-01-26T20:25:12.950Z,1.20
2023-01-26T20:27:41.082Z,1.20
2023-01-26T20:30:11.299Z,1.20
2023-01-26T20:32:39.348Z,1.20
2023-01-26T20:35:09.682Z,1.20
2023-01-26T20:37:38.378Z,1.20
2023-01-26T20:40:09.205Z,1.10
2023-01-26T20:42:37.163Z,1.20
2023-01-26T20:45:05.656Z,1.20
2023-01-26T20:47:34.207Z,1.20
2023-01-26T20:50:02.181Z,1.20
2023-01-26T20:52:30.465Z,1.20
2023-01-26T20:54:58.462Z,1.20
2023-01-26T20:57:27.735Z,1.20
2023-01-26T20:59:55.738Z,1.20
2023-01-26T21:02:23.692Z,1.20
2023-01-26T21:04:54.150Z,1.20
2023-01-26T21:07:22.620Z,1.10
2023-01-26T21:09:50.501Z,1.10
2023-01-26T21:12:18.357Z,1.10
2023-01-26T21:14:47.789Z,1.20
2023-01-26T21:17:17.428Z,1.20
2023-01-26T21:19:45.319Z,1.20
2023-01-26T21:22:13.186Z,1.20
2023-01-26T21:24:41.018Z,1.20
2023-01-26T21:27:08.936Z,1.20
2023-01-26T21:29:36.806Z,1.20
2023-01-26T21:32:06.337Z,1.20
2023-01-26T21:34:34.410Z,1.20
2023-01-26T21:37:02.697Z,1.20
2023-01-26T21:39:33.486Z,1.20
2023-01-26T21:42:01.372Z,1.20
2023-01-26T21:44:31.549Z,1.20
2023-01-26T21:47:03.943Z,1.30
2023-01-26T21:49:33.172Z,1.30
2023-01-26T21:52:18.778Z,1.20
2023-01-26T21:54:46.976Z,1.20
2023-01-26T21:57:32.405Z,1.20
2023-01-26T22:00:03.638Z,1.30
2023-01-26T22:02:32.729Z,1.30
2023-01-26T22:05:01.971Z,1.30
2023-01-26T22:07:32.057Z,1.30
2023-01-26T22:09:59.916Z,1.30
2023-01-26T22:12:27.813Z,1.30
2023-01-26T22:14:55.664Z,1.30
2023-01-26T22:17:23.653Z,1.40
2023-01-26T22:19:51.550Z,1.40
2023-01-26T22:22:20.721Z,1.40
2023-01-26T22:24:48.578Z,1.40
2023-01-26T22:27:16.488Z,1.40
2023-01-26T22:29:44.380Z,1.40
2023-01-26T22:32:12.493Z,1.40
2023-01-26T22:34:43.022Z,1.40
2023-01-26T22:37:10.910Z,1.30
2023-01-26T22:39:40.097Z,1.40
2023-01-26T22:42:08.137Z,1.30
2023-01-26T22:44:36.585Z,1.30
2023-01-26T22:47:04.760Z,1.30
2023-01-26T22:49:32.623Z,1.30
2023-01-26T22:52:00.473Z,1.40
2023-01-26T22:54:28.678Z,1.40
2023-01-26T22:56:57.856Z,1.40
2023-01-26T22:59:26.035Z,1.40
2023-01-26T23:01:53.912Z,1.40
2023-01-26T23:04:21.853Z,1.30
2023-01-26T23:06:49.707Z,1.20
2023-01-26T23:09:17.599Z,1.30
2023-01-26T23:12:02.325Z,1.30
2023-01-26T23:14:31.305Z,1.40
2023-01-26T23:16:59.726Z,1.40
2023-01-26T23:19:27.702Z,1.40
2023-01-26T23:21:55.720Z,2.00
2023-01-26T23:24:23.827Z,1.40
2023-01-26T23:26:51.808Z,1.40
2023-01-26T23:29:20.993Z,1.40
2023-01-26T23:31:48.944Z,1.40
2023-01-26T23:34:16.922Z,1.40
2023-01-26T23:36:44.802Z,1.40
2023-01-26T23:39:12.668Z,1.40
2023-01-26T23:41:40.533Z,1.40
2023-01-26T23:44:08.391Z,1.50
2023-01-26T23:46:37.943Z,1.50
2023-01-26T23:49:05.845Z,1.40
2023-01-26T23:51:33.720Z,1.40
2023-01-26T23:54:01.629Z,1.40
2023-01-26T23:56:29.868Z,1.50
2023-01-26T23:58:57.722Z,1.50
